createdAt,value
2017-09-28T00:00:01.113Z,23.02
2017-09-28T00:00:41.571Z,23.04
2017-09-28T00:01:22.023Z,23.04
2017-09-28T00:02:02.470Z,23.02
2017-09-28T00:02:42.930Z,23.02
2017-09-28T00:03:23.384Z,23.01
2017-09-28T00:04:03.841Z,23.04
2017-09-28T00:04:44.288Z,22.99
2017-09-28T00:05:24.745Z,23.08
2017-09-28T00:06:05.209Z,23.17
2017-09-28T00:06:45.670Z,23.04
2017-09-28T00:07:26.124Z,23.04
2017-09-28T00:08:06.576Z,23.01
2017-09-28T00:08:47.030Z,23.02
2017-09-28T00:09:27.482Z,22.98
2017-09-28T00:10:07.929Z,23.02
2017-09-28T00:10:48.416Z,22.98
2017-09-28T00:11:28.878Z,23.02
2017-09-28T00:12:09.339Z,23.01
2017-09-28T00:12:49.791Z,23.04
2017-09-28T00:13:30.264Z,23.04
2017-09-28T00:14:10.711Z,23.02
2017-09-28T00:14:51.171Z,23.06
2017-09-28T00:15:31.618Z,23.06
2017-09-28T00:16:12.077Z,23.01
2017-09-28T00:16:52.534Z,23.02
2017-09-28T00:17:32.985Z,23.01
2017-09-28T00:18:13.420Z,23.08
2017-09-28T00:18:53.875Z,23.01
2017-09-28T00:19:34.323Z,23.08
2017-09-28T00:20:14.775Z,22.98
2017-09-28T00:20:55.225Z,23.01
2017-09-28T00:21:35.687Z,23.01
2017-09-28T00:22:16.135Z,22.99
2017-09-28T00:22:56.585Z,22.99
2017-09-28T00:23:37.038Z,23.01
2017-09-28T00:24:17.494Z,22.98
2017-09-28T00:24:57.953Z,22.98
2017-09-28T00:25:38.407Z,22.98
2017-09-28T00:26:18.871Z,23.08
2017-09-28T00:26:59.330Z,23.11
2017-09-28T00:27:39.784Z,23.07
2017-09-28T00:28:20.233Z,22.96
2017-09-28T00:29:00.683Z,22.99
2017-09-28T00:29:41.130Z,23.07
2017-09-28T00:30:21.575Z,23.08
2017-09-28T00:31:02.034Z,22.99
2017-09-28T00:31:42.487Z,22.95
2017-09-28T00:32:22.929Z,23.06
2017-09-28T00:33:03.394Z,23.04
2017-09-28T00:33:43.851Z,23.04
2017-09-28T00:34:24.304Z,23.01
2017-09-28T00:35:04.765Z,22.95
2017-09-28T00:35:45.226Z,23.04
2017-09-28T00:36:25.683Z,23.02
2017-09-28T00:37:06.139Z,23.01
2017-09-28T00:37:46.602Z,23.02
2017-09-28T00:38:27.057Z,23.04
2017-09-28T00:39:07.517Z,23.02
2017-09-28T00:39:47.951Z,23.02
2017-09-28T00:40:28.413Z,22.98
2017-09-28T00:41:08.871Z,22.99
2017-09-28T00:41:49.322Z,22.96
2017-09-28T00:42:29.765Z,22.95
2017-09-28T00:43:10.216Z,22.98
2017-09-28T00:43:50.653Z,22.95
2017-09-28T00:44:31.117Z,22.99
2017-09-28T00:45:11.569Z,23.02
2017-09-28T00:45:52.014Z,22.98
2017-09-28T00:46:32.474Z,22.95
2017-09-28T00:47:12.923Z,22.98
2017-09-28T00:47:53.374Z,22.96
2017-09-28T00:48:33.826Z,22.93
2017-09-28T00:49:14.287Z,23.01
2017-09-28T00:49:54.742Z,22.96
2017-09-28T00:50:35.203Z,22.98
2017-09-28T00:51:15.660Z,22.99
2017-09-28T00:51:56.114Z,23.04
2017-09-28T00:52:36.568Z,23.04
2017-09-28T00:53:17.022Z,22.98
2017-09-28T00:53:57.482Z,22.98
2017-09-28T00:54:37.933Z,22.96
2017-09-28T00:55:18.376Z,22.98
2017-09-28T00:55:58.828Z,22.95
2017-09-28T00:56:39.282Z,22.98
2017-09-28T00:57:19.732Z,23.01
2017-09-28T00:58:00.190Z,22.98
2017-09-28T00:58:40.640Z,22.99
2017-09-28T00:59:21.090Z,23.01
2017-09-28T01:00:01.545Z,22.99
2017-09-28T01:00:41.989Z,22.95
2017-09-28T01:01:22.438Z,22.98
2017-09-28T01:02:02.894Z,22.99
2017-09-28T01:02:43.349Z,22.95
2017-09-28T01:03:23.816Z,22.95
2017-09-28T01:04:04.278Z,22.93
2017-09-28T01:04:44.730Z,22.93
2017-09-28T01:05:25.168Z,22.93
2017-09-28T01:06:05.621Z,22.95
2017-09-28T01:06:46.072Z,22.96
2017-09-28T01:07:26.528Z,22.99
2017-09-28T01:08:06.987Z,22.95
2017-09-28T01:08:47.445Z,22.92
2017-09-28T01:09:27.898Z,22.93
2017-09-28T01:10:08.353Z,22.98
2017-09-28T01:10:48.812Z,22.93
2017-09-28T01:11:29.266Z,22.98
2017-09-28T01:12:09.720Z,22.98
2017-09-28T01:12:50.173Z,22.92
2017-09-28T01:13:30.630Z,22.95
2017-09-28T01:14:11.089Z,22.93
2017-09-28T01:14:51.564Z,22.95
2017-09-28T01:15:32.014Z,22.98
2017-09-28T01:16:12.468Z,22.93
2017-09-28T01:16:52.926Z,22.92
2017-09-28T01:17:33.376Z,22.93
2017-09-28T01:18:13.834Z,22.93
2017-09-28T01:18:54.287Z,22.93
2017-09-28T01:19:34.746Z,22.93
2017-09-28T01:20:15.204Z,22.96
2017-09-28T01:20:55.660Z,22.93
2017-09-28T01:21:36.120Z,22.93
2017-09-28T01:22:16.570Z,22.96
2017-09-28T01:22:57.020Z,22.98
2017-09-28T01:23:37.474Z,22.93
2017-09-28T01:24:17.922Z,22.95
2017-09-28T01:24:58.385Z,22.89
2017-09-28T01:25:38.822Z,22.96
2017-09-28T01:26:19.272Z,22.98
2017-09-28T01:26:59.727Z,22.92
2017-09-28T01:27:40.180Z,22.91
2017-09-28T01:28:20.637Z,22.91
2017-09-28T01:29:01.106Z,22.95
2017-09-28T01:29:41.560Z,22.88
2017-09-28T01:30:22.023Z,22.93
2017-09-28T01:31:02.475Z,22.93
2017-09-28T01:31:42.926Z,22.91
2017-09-28T01:32:23.381Z,22.93
2017-09-28T01:33:03.849Z,22.88
2017-09-28T01:33:44.297Z,22.91
2017-09-28T01:34:24.759Z,22.84
2017-09-28T01:35:05.223Z,22.95
2017-09-28T01:35:45.681Z,22.86
2017-09-28T01:36:26.142Z,22.95
2017-09-28T01:37:06.594Z,22.93
2017-09-28T01:37:47.059Z,22.91
2017-09-28T01:38:27.513Z,22.93
2017-09-28T01:39:07.969Z,22.8
2017-09-28T01:39:48.420Z,22.84
2017-09-28T01:40:28.878Z,22.86
2017-09-28T01:41:09.341Z,22.89
2017-09-28T01:41:49.777Z,22.8
2017-09-28T01:42:30.229Z,22.92
2017-09-28T01:43:10.677Z,22.89
2017-09-28T01:43:51.124Z,22.78
2017-09-28T01:44:31.577Z,22.78
2017-09-28T01:45:12.036Z,22.84
2017-09-28T01:45:52.488Z,22.89
2017-09-28T01:46:32.949Z,22.89
2017-09-28T01:47:13.401Z,22.81
2017-09-28T01:47:53.851Z,22.88
2017-09-28T01:48:34.309Z,22.88
2017-09-28T01:49:14.767Z,22.86
2017-09-28T01:49:55.222Z,22.81
2017-09-28T01:50:35.676Z,22.83
2017-09-28T01:51:16.130Z,22.8
2017-09-28T01:51:56.581Z,22.88
2017-09-28T01:52:37.037Z,22.84
2017-09-28T01:53:17.495Z,22.81
2017-09-28T01:53:57.947Z,22.81
2017-09-28T01:54:38.404Z,22.84
2017-09-28T01:55:18.861Z,22.83
2017-09-28T01:55:59.323Z,22.88
2017-09-28T01:56:39.782Z,22.86
2017-09-28T01:57:20.241Z,22.81
2017-09-28T01:58:00.696Z,22.89
2017-09-28T01:58:41.158Z,22.81
2017-09-28T01:59:21.617Z,22.88
2017-09-28T02:00:02.077Z,22.81
2017-09-28T02:00:42.536Z,22.78
2017-09-28T02:01:22.995Z,22.8
2017-09-28T02:02:03.450Z,22.83
2017-09-28T02:02:43.906Z,22.84
2017-09-28T02:03:24.388Z,22.84
2017-09-28T02:04:04.837Z,22.83
2017-09-28T02:04:45.289Z,22.83
2017-09-28T02:05:25.745Z,22.84
2017-09-28T02:06:06.201Z,22.8
2017-09-28T02:06:46.655Z,22.89
2017-09-28T02:07:27.111Z,22.89
2017-09-28T02:08:07.565Z,22.78
2017-09-28T02:08:48.012Z,22.83
2017-09-28T02:09:28.471Z,22.84
2017-09-28T02:10:08.911Z,22.88
2017-09-28T02:10:49.380Z,22.8
2017-09-28T02:11:29.832Z,22.86
2017-09-28T02:12:10.288Z,22.81
2017-09-28T02:12:50.745Z,22.8
2017-09-28T02:13:31.198Z,22.83
2017-09-28T02:14:11.659Z,22.83
2017-09-28T02:14:52.102Z,22.81
2017-09-28T02:15:32.555Z,22.84
2017-09-28T02:16:13.010Z,22.8
2017-09-28T02:16:53.469Z,22.8
2017-09-28T02:17:33.924Z,22.84
2017-09-28T02:18:14.379Z,22.81
2017-09-28T02:18:54.831Z,22.81
2017-09-28T02:19:35.287Z,22.8
2017-09-28T02:20:15.739Z,22.78
2017-09-28T02:20:56.202Z,22.78
2017-09-28T02:21:36.649Z,22.77
2017-09-28T02:22:17.102Z,22.8
2017-09-28T02:22:57.564Z,22.8
2017-09-28T02:23:38.541Z,22.78
2017-09-28T02:24:18.997Z,22.78
2017-09-28T02:24:59.454Z,22.83
2017-09-28T02:25:39.905Z,22.8
2017-09-28T02:26:20.361Z,22.74
2017-09-28T02:27:00.818Z,22.8
2017-09-28T02:27:41.271Z,22.73
2017-09-28T02:28:21.733Z,22.74
2017-09-28T02:29:02.186Z,22.7
2017-09-28T02:29:42.639Z,22.8
2017-09-28T02:30:23.098Z,22.77
2017-09-28T02:31:03.549Z,22.77
2017-09-28T02:31:44.007Z,22.76
2017-09-28T02:32:24.469Z,22.73
2017-09-28T02:33:04.916Z,22.71
2017-09-28T02:35:17.713Z,22.78
2017-09-28T02:35:58.164Z,22.68
2017-09-28T02:36:38.623Z,22.65
2017-09-28T02:37:19.082Z,22.76
2017-09-28T02:37:59.538Z,22.74
2017-09-28T02:38:39.996Z,22.76
2017-09-28T02:39:20.449Z,22.73
2017-09-28T02:40:00.902Z,22.73
2017-09-28T02:40:41.350Z,22.74
2017-09-28T02:41:21.800Z,22.76
2017-09-28T02:42:02.258Z,22.71
2017-09-28T02:42:42.708Z,22.74
2017-09-28T02:43:23.150Z,22.7
2017-09-28T02:44:03.584Z,22.74
2017-09-28T02:44:44.038Z,22.73
2017-09-28T02:45:24.498Z,22.71
2017-09-28T02:46:04.955Z,22.67
2017-09-28T02:46:45.403Z,22.67
2017-09-28T02:47:25.841Z,22.68
2017-09-28T02:48:06.303Z,22.68
2017-09-28T02:48:46.739Z,22.68
2017-09-28T02:49:27.188Z,22.67
2017-09-28T02:50:07.637Z,22.7
2017-09-28T02:50:48.117Z,22.71
2017-09-28T02:51:28.569Z,22.74
2017-09-28T02:52:09.029Z,22.71
2017-09-28T02:52:49.480Z,22.73
2017-09-28T02:53:29.939Z,22.7
2017-09-28T02:54:10.387Z,22.74
2017-09-28T02:54:50.845Z,22.73
2017-09-28T02:55:31.296Z,22.73
2017-09-28T02:56:11.759Z,22.73
2017-09-28T02:56:52.218Z,22.74
2017-09-28T02:57:32.673Z,22.7
2017-09-28T02:58:13.141Z,22.74
2017-09-28T02:58:53.572Z,22.68
2017-09-28T02:59:34.020Z,22.73
2017-09-28T03:00:14.462Z,22.71
2017-09-28T03:00:54.917Z,22.76
2017-09-28T03:01:35.371Z,22.71
2017-09-28T03:02:15.824Z,22.78
2017-09-28T03:02:56.268Z,22.62
2017-09-28T03:03:36.730Z,22.71
2017-09-28T03:04:17.185Z,22.7
2017-09-28T03:04:57.644Z,22.63
2017-09-28T03:05:38.104Z,22.65
2017-09-28T03:06:18.547Z,22.62
2017-09-28T03:06:59.005Z,22.62
2017-09-28T03:07:39.456Z,22.71
2017-09-28T03:08:19.909Z,22.76
2017-09-28T03:09:00.360Z,22.67
2017-09-28T03:09:40.822Z,22.71
2017-09-28T03:10:21.277Z,22.76
2017-09-28T03:11:01.733Z,22.61
2017-09-28T03:11:42.189Z,22.61
2017-09-28T03:12:22.647Z,22.7
2017-09-28T03:13:03.100Z,22.73
2017-09-28T03:13:43.555Z,22.7
2017-09-28T03:14:24.004Z,22.63
2017-09-28T03:15:04.451Z,22.7
2017-09-28T03:15:44.901Z,22.65
2017-09-28T03:16:25.357Z,22.65
2017-09-28T03:17:05.820Z,22.61
2017-09-28T03:17:46.269Z,22.61
2017-09-28T03:18:26.725Z,22.67
2017-09-28T03:19:07.187Z,22.62
2017-09-28T03:19:47.641Z,22.71
2017-09-28T03:20:28.093Z,22.63
2017-09-28T03:21:08.545Z,22.63
2017-09-28T03:21:48.997Z,22.58
2017-09-28T03:22:29.449Z,22.67
2017-09-28T03:23:09.904Z,22.59
2017-09-28T03:23:50.360Z,22.61
2017-09-28T03:24:30.812Z,22.67
2017-09-28T03:25:11.253Z,22.61
2017-09-28T03:25:51.739Z,22.59
2017-09-28T03:26:32.160Z,22.67
2017-09-28T03:27:12.616Z,22.68
2017-09-28T03:27:53.066Z,22.63
2017-09-28T03:28:33.525Z,22.63
2017-09-28T03:29:13.969Z,22.67
2017-09-28T03:29:54.428Z,22.67
2017-09-28T03:30:34.877Z,22.63
2017-09-28T03:31:15.328Z,22.61
2017-09-28T03:31:55.787Z,22.67
2017-09-28T03:32:36.240Z,22.62
2017-09-28T03:33:16.693Z,22.59
2017-09-28T03:33:57.143Z,22.58
2017-09-28T03:34:37.602Z,22.65
2017-09-28T03:35:18.056Z,22.58
2017-09-28T03:35:58.515Z,22.65
2017-09-28T03:36:38.972Z,22.62
2017-09-28T03:37:19.415Z,22.59
2017-09-28T03:37:59.874Z,22.61
2017-09-28T03:38:40.333Z,22.61
2017-09-28T03:39:20.789Z,22.7
2017-09-28T03:40:01.237Z,22.7
2017-09-28T03:40:41.694Z,22.67
2017-09-28T03:41:22.134Z,22.74
2017-09-28T03:42:02.583Z,22.68
2017-09-28T03:42:43.044Z,22.74
2017-09-28T03:43:23.496Z,22.58
2017-09-28T03:44:03.953Z,22.67
2017-09-28T03:44:44.412Z,22.71
2017-09-28T03:45:24.883Z,22.71
2017-09-28T03:46:05.328Z,22.77
2017-09-28T03:46:45.791Z,22.73
2017-09-28T03:47:26.240Z,22.77
2017-09-28T03:48:06.691Z,22.7
2017-09-28T03:48:47.142Z,22.71
2017-09-28T03:49:27.595Z,22.71
2017-09-28T03:50:08.053Z,22.7
2017-09-28T03:50:48.491Z,22.71
2017-09-28T03:51:28.939Z,22.76
2017-09-28T03:53:16.339Z,22.74
2017-09-28T03:53:56.792Z,22.74
2017-09-28T03:54:37.246Z,22.76
2017-09-28T03:55:17.693Z,22.76
2017-09-28T03:55:58.136Z,22.7
2017-09-28T03:56:38.595Z,22.73
2017-09-28T03:57:19.048Z,22.73
2017-09-28T03:57:59.500Z,22.78
2017-09-28T03:58:39.966Z,22.8
2017-09-28T03:59:20.410Z,22.77
2017-09-28T04:00:00.868Z,22.8
2017-09-28T04:00:41.322Z,22.83
2017-09-28T04:01:21.773Z,22.81
2017-09-28T04:02:02.228Z,22.81
2017-09-28T04:02:42.679Z,22.81
2017-09-28T04:03:23.124Z,22.76
2017-09-28T04:04:03.583Z,22.86
2017-09-28T04:04:44.027Z,22.84
2017-09-28T04:05:24.478Z,22.84
2017-09-28T04:06:04.937Z,22.88
2017-09-28T04:06:45.390Z,22.81
2017-09-28T04:07:25.866Z,22.92
2017-09-28T04:08:06.322Z,22.88
2017-09-28T04:08:46.772Z,22.93
2017-09-28T04:09:27.219Z,22.92
2017-09-28T04:10:07.670Z,22.93
2017-09-28T04:10:48.139Z,22.98
2017-09-28T04:11:28.586Z,22.95
2017-09-28T04:12:09.041Z,22.99
2017-09-28T04:12:49.506Z,22.98
2017-09-28T04:13:29.958Z,22.95
2017-09-28T04:14:10.393Z,22.96
2017-09-28T04:14:50.844Z,22.99
2017-09-28T04:15:31.303Z,23.1
2017-09-28T04:16:11.749Z,22.96
2017-09-28T04:16:52.208Z,23.01
2017-09-28T04:17:32.707Z,23.02
2017-09-28T04:18:13.150Z,23.01
2017-09-28T04:18:53.600Z,23.06
2017-09-28T04:19:34.053Z,23.04
2017-09-28T04:20:14.485Z,23.1
2017-09-28T04:20:54.941Z,23.11
2017-09-28T04:21:35.385Z,23.08
2017-09-28T04:22:15.825Z,23.13
2017-09-28T04:22:56.237Z,23.11
2017-09-28T04:23:36.698Z,23.13
2017-09-28T04:24:17.143Z,23.13
2017-09-28T04:26:29.822Z,23.14
2017-09-28T04:27:10.266Z,23.11
2017-09-28T04:27:50.733Z,23.1
2017-09-28T04:28:31.190Z,23.11
2017-09-28T04:29:11.642Z,23.26
2017-09-28T04:29:52.090Z,23.2
2017-09-28T04:30:32.545Z,23.18
2017-09-28T04:31:13.005Z,23.13
2017-09-28T04:31:53.461Z,23.32
2017-09-28T04:32:33.905Z,23.28
2017-09-28T04:33:14.357Z,23.2
2017-09-28T04:33:54.806Z,23.26
2017-09-28T04:34:35.260Z,23.21
2017-09-28T04:35:15.713Z,23.26
2017-09-28T04:35:56.157Z,23.28
2017-09-28T04:36:36.596Z,23.28
2017-09-28T04:37:17.048Z,23.21
2017-09-28T04:37:57.507Z,23.23
2017-09-28T04:38:37.968Z,23.26
2017-09-28T04:39:18.422Z,23.28
2017-09-28T04:39:58.880Z,23.26
2017-09-28T04:40:39.333Z,23.28
2017-09-28T04:41:19.788Z,23.25
2017-09-28T04:42:00.240Z,23.26
2017-09-28T04:42:40.685Z,23.26
2017-09-28T04:43:21.147Z,23.29
2017-09-28T04:44:01.602Z,23.28
2017-09-28T04:44:42.046Z,23.33
2017-09-28T04:45:22.497Z,23.34
2017-09-28T04:46:02.948Z,23.28
2017-09-28T04:46:43.400Z,23.21
2017-09-28T04:47:23.857Z,23.29
2017-09-28T04:48:04.312Z,23.33
2017-09-28T04:48:44.765Z,23.32
2017-09-28T04:49:25.228Z,23.21
2017-09-28T04:50:05.679Z,23.34
2017-09-28T04:50:46.136Z,23.2
2017-09-28T04:51:26.589Z,23.32
2017-09-28T04:52:07.239Z,23.28
2017-09-28T04:52:47.690Z,23.28
2017-09-28T04:53:28.146Z,23.18
2017-09-28T04:54:08.595Z,23.16
2017-09-28T04:54:49.045Z,23.21
2017-09-28T04:55:29.510Z,23.18
2017-09-28T04:56:09.959Z,23.18
2017-09-28T04:56:50.442Z,23.14
2017-09-28T04:57:30.878Z,23.14
2017-09-28T04:58:11.339Z,23.23
2017-09-28T04:58:51.784Z,23.13
2017-09-28T04:59:32.218Z,23.16
2017-09-28T05:00:12.684Z,23.1
2017-09-28T05:00:53.144Z,23.11
2017-09-28T05:01:33.575Z,23.16
2017-09-28T05:02:14.034Z,23.14
2017-09-28T05:02:54.486Z,23.14
2017-09-28T05:03:34.938Z,23.17
2017-09-28T05:04:15.397Z,23.16
2017-09-28T05:04:55.850Z,23.16
2017-09-28T05:05:36.303Z,23.16
2017-09-28T05:06:16.765Z,23.13
2017-09-28T05:06:57.209Z,23.21
2017-09-28T05:07:37.658Z,23.1
2017-09-28T05:08:18.110Z,23.07
2017-09-28T05:08:58.573Z,23.13
2017-09-28T05:09:39.015Z,23.07
2017-09-28T05:10:19.488Z,22.98
2017-09-28T05:10:59.942Z,23.06
2017-09-28T05:11:40.397Z,23.01
2017-09-28T05:12:20.838Z,23.04
2017-09-28T05:13:01.298Z,23.07
2017-09-28T05:13:41.753Z,23.02
2017-09-28T05:14:22.430Z,23.04
2017-09-28T05:15:02.896Z,23.04
2017-09-28T05:17:15.671Z,23.02
2017-09-28T05:17:56.122Z,23.06
2017-09-28T05:18:36.571Z,23.04
2017-09-28T05:19:17.016Z,22.99
2017-09-28T05:19:57.473Z,22.93
2017-09-28T05:20:37.929Z,22.99
2017-09-28T05:21:18.363Z,22.95
2017-09-28T05:21:58.822Z,22.99
2017-09-28T05:22:39.278Z,22.98
2017-09-28T05:23:19.712Z,22.96
2017-09-28T05:24:00.162Z,22.88
2017-09-28T05:24:40.615Z,22.93
2017-09-28T05:25:21.072Z,22.84
2017-09-28T05:26:01.535Z,22.92
2017-09-28T05:26:41.986Z,22.91
2017-09-28T05:27:22.433Z,22.93
2017-09-28T05:28:02.886Z,22.98
2017-09-28T05:28:43.340Z,22.98
2017-09-28T05:29:23.793Z,22.91
2017-09-28T05:30:04.237Z,22.83
2017-09-28T05:30:44.690Z,22.91
2017-09-28T05:31:25.145Z,22.92
2017-09-28T05:32:05.597Z,22.83
2017-09-28T05:32:46.050Z,22.86
2017-09-28T05:33:26.505Z,22.86
2017-09-28T05:34:06.960Z,22.84
2017-09-28T05:34:47.414Z,22.88
2017-09-28T05:35:27.870Z,22.89
2017-09-28T05:36:08.327Z,22.89
2017-09-28T05:36:48.773Z,22.78
2017-09-28T05:37:29.225Z,22.84
2017-09-28T05:38:09.681Z,22.88
2017-09-28T05:38:50.177Z,22.84
2017-09-28T05:39:30.838Z,22.88
2017-09-28T05:40:11.292Z,22.86
2017-09-28T05:40:51.739Z,22.88
2017-09-28T05:41:32.195Z,22.78
2017-09-28T05:42:12.645Z,22.88
2017-09-28T05:42:53.098Z,22.84
2017-09-28T05:43:33.544Z,22.89
2017-09-28T05:44:14.001Z,22.84
2017-09-28T05:44:54.458Z,22.89
2017-09-28T05:45:34.912Z,22.81
2017-09-28T05:46:15.419Z,22.92
2017-09-28T05:46:55.826Z,22.88
2017-09-28T05:48:43.416Z,22.92
2017-09-28T05:50:56.061Z,22.95
2017-09-28T05:51:36.521Z,22.91
2017-09-28T05:52:16.974Z,22.93
2017-09-28T05:52:57.429Z,22.93
2017-09-28T05:53:37.877Z,22.93
2017-09-28T05:54:18.333Z,22.92
2017-09-28T05:54:58.796Z,22.93
2017-09-28T05:55:39.257Z,22.98
2017-09-28T05:56:19.702Z,22.96
2017-09-28T05:58:07.656Z,22.91
2017-09-28T05:58:48.100Z,22.93
2017-09-28T05:59:28.561Z,22.93
2017-09-28T06:00:09.006Z,22.96
2017-09-28T06:00:49.467Z,22.93
2017-09-28T06:01:29.921Z,22.89
2017-09-28T06:02:10.373Z,22.92
2017-09-28T06:02:50.829Z,22.92
2017-09-28T06:03:31.293Z,22.88
2017-09-28T06:04:11.730Z,22.91
2017-09-28T06:04:52.196Z,22.96
2017-09-28T06:05:32.650Z,22.96
2017-09-28T06:06:13.095Z,22.91
2017-09-28T06:06:53.549Z,22.96
2017-09-28T06:07:34.005Z,22.95
2017-09-28T06:08:14.455Z,22.96
2017-09-28T06:08:54.915Z,22.92
2017-09-28T06:09:35.374Z,22.88
2017-09-28T06:10:15.812Z,22.89
2017-09-28T06:10:56.418Z,22.92
2017-09-28T06:11:36.865Z,22.88
2017-09-28T06:12:17.324Z,22.89
2017-09-28T06:12:57.776Z,22.91
2017-09-28T06:13:38.261Z,22.96
2017-09-28T06:14:18.701Z,22.92
2017-09-28T06:16:06.088Z,22.91
2017-09-28T06:16:46.540Z,22.89
2017-09-28T06:17:27.016Z,22.91
2017-09-28T06:18:07.474Z,22.92
2017-09-28T06:18:47.927Z,22.91
2017-09-28T06:19:28.379Z,22.81
2017-09-28T06:20:08.833Z,22.86
2017-09-28T06:20:49.287Z,22.83
2017-09-28T06:21:29.741Z,22.84
2017-09-28T06:22:10.193Z,22.96
2017-09-28T06:22:50.647Z,22.88
2017-09-28T06:23:31.100Z,22.81
2017-09-28T06:24:11.554Z,22.91
2017-09-28T06:24:52.016Z,22.92
2017-09-28T06:25:32.461Z,22.88
2017-09-28T06:26:12.961Z,22.81
2017-09-28T06:26:53.363Z,22.84
2017-09-28T06:27:33.819Z,22.86
2017-09-28T06:28:14.275Z,22.89
2017-09-28T06:28:54.717Z,22.89
2017-09-28T06:29:35.163Z,22.88
2017-09-28T06:30:15.609Z,22.88
2017-09-28T06:30:56.049Z,22.81
2017-09-28T06:31:36.503Z,22.78
2017-09-28T06:32:16.960Z,22.93
2017-09-28T06:32:57.405Z,22.93
2017-09-28T06:33:37.858Z,22.83
2017-09-28T06:34:18.326Z,22.86
2017-09-28T06:34:58.764Z,22.84
2017-09-28T06:35:39.218Z,22.8
2017-09-28T06:36:19.663Z,22.93
2017-09-28T06:37:00.129Z,22.89
2017-09-28T06:37:40.685Z,22.84
2017-09-28T06:38:21.492Z,22.86
2017-09-28T06:39:01.633Z,22.83
2017-09-28T06:39:42.085Z,22.8
2017-09-28T06:40:22.538Z,22.86
2017-09-28T06:41:02.982Z,22.84
2017-09-28T06:41:43.430Z,22.88
2017-09-28T06:42:23.884Z,22.81
2017-09-28T06:43:04.334Z,22.81
2017-09-28T06:43:44.786Z,22.83
2017-09-28T06:44:25.437Z,22.81
2017-09-28T06:45:05.885Z,22.88
2017-09-28T06:45:46.330Z,22.88
2017-09-28T06:46:26.784Z,22.89
2017-09-28T06:47:07.416Z,22.95
2017-09-28T06:47:48.329Z,22.95
2017-09-28T06:48:28.775Z,22.92
2017-09-28T06:49:09.230Z,22.92
2017-09-28T06:49:49.682Z,22.86
2017-09-28T06:50:30.122Z,22.93
2017-09-28T06:51:10.574Z,22.91
2017-09-28T06:51:51.031Z,22.91
2017-09-28T06:52:31.487Z,22.81
2017-09-28T06:53:11.944Z,22.86
2017-09-28T06:53:52.397Z,22.92
2017-09-28T06:54:32.844Z,22.84
2017-09-28T06:55:13.297Z,22.93
2017-09-28T06:55:53.756Z,22.86
2017-09-28T06:56:34.210Z,22.93
2017-09-28T06:57:14.668Z,22.95
2017-09-28T06:57:55.121Z,22.95
2017-09-28T06:58:35.573Z,22.91
2017-09-28T06:59:16.027Z,22.92
2017-09-28T06:59:56.532Z,22.86
2017-09-28T07:00:36.977Z,22.92
2017-09-28T07:01:17.428Z,22.95
2017-09-28T07:01:57.887Z,22.92
2017-09-28T07:02:38.346Z,22.91
2017-09-28T07:03:18.802Z,22.95
2017-09-28T07:03:59.258Z,22.89
2017-09-28T07:04:39.712Z,22.89
2017-09-28T07:05:20.167Z,22.93
2017-09-28T07:06:00.617Z,22.92
2017-09-28T07:06:41.085Z,22.89
2017-09-28T07:07:21.537Z,22.89
2017-09-28T07:08:01.996Z,22.96
2017-09-28T07:08:42.438Z,22.89
2017-09-28T07:09:22.923Z,22.96
2017-09-28T07:10:03.383Z,22.96
2017-09-28T07:10:43.821Z,22.91
2017-09-28T07:12:56.610Z,22.92
2017-09-28T07:13:37.070Z,22.99
2017-09-28T07:14:17.548Z,23.01
2017-09-28T07:14:58.021Z,22.96
2017-09-28T07:15:38.464Z,23.06
2017-09-28T07:16:18.902Z,23.06
2017-09-28T07:16:59.374Z,22.98
2017-09-28T07:17:39.824Z,23.01
2017-09-28T07:18:20.276Z,23.01
2017-09-28T07:19:00.735Z,23.01
2017-09-28T07:19:41.186Z,23.06
2017-09-28T07:20:21.648Z,22.99
2017-09-28T07:21:02.099Z,23.06
2017-09-28T07:21:42.553Z,23.1
2017-09-28T07:22:23.005Z,23.16
2017-09-28T07:23:03.456Z,23.07
2017-09-28T07:23:43.923Z,23.11
2017-09-28T07:24:24.372Z,23.16
2017-09-28T07:25:04.821Z,23.17
2017-09-28T07:25:45.274Z,23.18
2017-09-28T07:26:25.726Z,23.11
2017-09-28T07:27:06.329Z,23.08
2017-09-28T07:27:46.642Z,23.14
2017-09-28T07:28:27.098Z,23.1
2017-09-28T07:29:07.549Z,23.14
2017-09-28T07:29:48.004Z,23.17
2017-09-28T07:30:28.453Z,23.16
2017-09-28T07:31:08.911Z,23.1
2017-09-28T07:31:49.364Z,23.25
2017-09-28T07:32:29.820Z,23.17
2017-09-28T07:33:10.278Z,23.17
2017-09-28T07:33:50.728Z,23.18
2017-09-28T07:34:31.186Z,23.23
2017-09-28T07:35:11.686Z,23.29
2017-09-28T07:35:52.138Z,23.33
2017-09-28T07:36:32.591Z,23.25
2017-09-28T07:37:13.044Z,23.21
2017-09-28T07:37:53.506Z,23.29
2017-09-28T07:38:33.962Z,23.28
2017-09-28T07:39:14.404Z,23.28
2017-09-28T07:39:54.867Z,23.33
2017-09-28T07:40:35.319Z,23.25
2017-09-28T07:41:15.776Z,23.26
2017-09-28T07:41:56.232Z,23.36
2017-09-28T07:42:36.684Z,23.32
2017-09-28T07:43:17.136Z,23.32
2017-09-28T07:43:57.594Z,23.28
2017-09-28T07:44:38.047Z,23.26
2017-09-28T07:45:18.505Z,23.39
2017-09-28T07:45:58.940Z,23.28
2017-09-28T07:46:39.393Z,23.37
2017-09-28T07:47:19.842Z,23.37
2017-09-28T07:48:00.280Z,23.39
2017-09-28T07:48:40.729Z,23.39
2017-09-28T07:49:21.193Z,23.34
2017-09-28T07:50:01.642Z,23.34
2017-09-28T07:50:42.092Z,23.44
2017-09-28T07:51:22.536Z,23.32
2017-09-28T07:52:02.988Z,23.28
2017-09-28T07:52:43.445Z,23.26
2017-09-28T07:53:23.894Z,23.32
2017-09-28T07:54:04.346Z,23.32
2017-09-28T07:54:44.791Z,23.25
2017-09-28T07:55:25.252Z,23.32
2017-09-28T07:56:05.704Z,23.32
2017-09-28T07:56:46.154Z,23.33
2017-09-28T07:57:26.633Z,23.39
2017-09-28T07:58:07.064Z,23.44
2017-09-28T07:58:47.518Z,23.39
2017-09-28T07:59:27.973Z,23.36
2017-09-28T08:00:08.422Z,23.39
2017-09-28T08:00:48.867Z,23.4
2017-09-28T08:01:29.327Z,23.36
2017-09-28T08:02:09.788Z,23.4
2017-09-28T08:02:50.245Z,23.36
2017-09-28T08:03:30.702Z,23.36
2017-09-28T08:04:11.159Z,23.4
2017-09-28T08:04:51.613Z,23.48
2017-09-28T08:05:32.062Z,23.48
2017-09-28T08:06:12.522Z,23.4
2017-09-28T08:06:52.977Z,23.45
2017-09-28T08:07:33.430Z,23.37
2017-09-28T08:08:13.914Z,23.42
2017-09-28T08:08:54.319Z,23.48
2017-09-28T08:09:34.771Z,23.4
2017-09-28T08:10:15.225Z,23.34
2017-09-28T08:10:55.677Z,23.34
2017-09-28T08:11:36.137Z,23.4
2017-09-28T08:12:16.576Z,23.39
2017-09-28T08:12:57.044Z,23.4
2017-09-28T08:13:37.507Z,23.28
2017-09-28T08:14:17.959Z,23.45
2017-09-28T08:14:58.424Z,23.44
2017-09-28T08:15:38.882Z,23.45
2017-09-28T08:16:19.315Z,23.44
2017-09-28T08:16:59.771Z,23.42
2017-09-28T08:17:40.227Z,23.42
2017-09-28T08:18:20.664Z,23.44
2017-09-28T08:19:01.118Z,23.47
2017-09-28T08:19:41.578Z,23.54
2017-09-28T08:20:22.005Z,23.48
2017-09-28T08:21:02.448Z,23.54
2017-09-28T08:21:42.895Z,23.56
2017-09-28T08:22:23.345Z,23.64
2017-09-28T08:23:03.793Z,23.66
2017-09-28T08:23:44.245Z,23.7
2017-09-28T08:24:24.702Z,23.73
2017-09-28T08:25:05.156Z,23.7
2017-09-28T08:25:45.611Z,23.73
2017-09-28T08:26:26.062Z,23.82
2017-09-28T08:27:06.525Z,23.89
2017-09-28T08:27:46.978Z,23.95
2017-09-28T08:28:27.422Z,23.96
2017-09-28T08:29:07.881Z,23.92
2017-09-28T08:29:48.339Z,24.01
2017-09-28T08:30:28.794Z,24.03
2017-09-28T08:31:09.248Z,24.06
2017-09-28T08:31:49.705Z,24.1
2017-09-28T08:32:30.154Z,24.1
2017-09-28T08:33:10.614Z,24.16
2017-09-28T08:33:51.074Z,24.14
2017-09-28T08:34:31.527Z,24.19
2017-09-28T08:35:11.978Z,24.22
2017-09-28T08:35:52.433Z,24.28
2017-09-28T08:36:32.894Z,24.34
2017-09-28T08:37:13.351Z,24.4
2017-09-28T08:37:53.804Z,24.4
2017-09-28T08:38:34.259Z,24.37
2017-09-28T08:39:14.715Z,24.36
2017-09-28T08:39:55.166Z,24.43
2017-09-28T08:40:35.615Z,24.37
2017-09-28T08:41:16.071Z,24.47
2017-09-28T08:41:56.521Z,24.44
2017-09-28T08:42:36.978Z,24.46
2017-09-28T08:43:17.436Z,24.41
2017-09-28T08:43:57.891Z,24.48
2017-09-28T08:44:38.348Z,24.58
2017-09-28T08:45:18.801Z,24.59
2017-09-28T08:45:59.250Z,24.61
2017-09-28T08:46:39.700Z,24.71
2017-09-28T08:47:20.155Z,24.65
2017-09-28T08:48:00.617Z,24.66
2017-09-28T08:48:41.064Z,24.68
2017-09-28T08:49:21.519Z,24.68
2017-09-28T08:50:01.968Z,24.66
2017-09-28T08:50:42.413Z,24.66
2017-09-28T08:51:22.882Z,24.63
2017-09-28T08:52:03.337Z,24.68
2017-09-28T08:52:43.799Z,24.66
2017-09-28T08:53:24.250Z,24.63
2017-09-28T08:54:04.706Z,24.62